createdAt,value
2023-01-06T00:00:14.593Z,0
2023-01-06T00:02:50.251Z,0
2023-01-06T00:03:30.828Z,0
2023-01-06T00:04:11.412Z,0
2023-01-06T00:04:52.905Z,0
2023-01-06T00:07:34.913Z,0
2023-01-06T00:08:15.409Z,0
2023-01-06T00:08:55.975Z,0
2023-01-06T00:09:36.472Z,0
2023-01-06T00:10:17.019Z,0
2023-01-06T00:10:57.535Z,0
2023-01-06T00:11:38.062Z,0
2023-01-06T00:12:18.589Z,0
2023-01-06T00:12:59.119Z,0
2023-01-06T00:13:39.795Z,0
2023-01-06T00:18:25.879Z,0
2023-01-06T00:19:06.351Z,0
2023-01-06T00:19:46.895Z,0
2023-01-06T00:20:27.433Z,0
2023-01-06T00:21:07.977Z,0
2023-01-06T00:21:48.507Z,0
2023-01-06T00:29:15.375Z,0
2023-01-06T00:29:55.773Z,0
2023-01-06T00:30:36.322Z,0
2023-01-06T00:31:16.959Z,0
2023-01-06T00:31:57.404Z,0
2023-01-06T00:32:37.905Z,0
2023-01-06T00:33:18.449Z,0
2023-01-06T00:33:58.978Z,0
2023-01-06T00:34:39.709Z,0
2023-01-06T00:41:25.089Z,0
2023-01-06T00:42:05.701Z,0
2023-01-06T00:42:46.231Z,0
2023-01-06T00:43:26.785Z,0
2023-01-06T00:44:07.313Z,0
2023-01-06T00:44:47.962Z,0
2023-01-06T00:45:28.375Z,0
2023-01-06T00:46:08.972Z,0
2023-01-06T00:46:49.471Z,0
2023-01-06T00:50:23.747Z,0
2023-01-06T00:51:04.243Z,0
2023-01-06T00:51:44.775Z,0
2023-01-06T00:52:25.351Z,0
2023-01-06T00:55:08.258Z,0
2023-01-06T00:55:48.813Z,0
2023-01-06T00:56:29.432Z,0
2023-01-06T00:57:09.935Z,0
2023-01-06T00:57:50.469Z,0
2023-01-06T00:58:31.017Z,0
2023-01-06T00:59:11.581Z,0
2023-01-06T00:59:52.252Z,0
2023-01-06T01:00:32.639Z,0
2023-01-06T01:01:13.296Z,0
2023-01-06T01:07:58.556Z,0
2023-01-06T01:08:39.091Z,0
2023-01-06T01:09:19.633Z,0
2023-01-06T01:10:00.181Z,0
2023-01-06T01:10:40.738Z,0
2023-01-06T01:11:21.284Z,0
2023-01-06T01:12:01.805Z,0
2023-01-06T01:12:42.393Z,0
2023-01-06T01:13:22.946Z,0
2023-01-06T01:20:08.455Z,0
2023-01-06T01:20:48.993Z,0
2023-01-06T01:21:29.560Z,0
2023-01-06T01:22:10.092Z,0
2023-01-06T01:22:50.610Z,0
2023-01-06T01:23:31.177Z,0
2023-01-06T01:24:12.728Z,0
2023-01-06T01:24:53.249Z,0
2023-01-06T01:30:18.514Z,0
2023-01-06T01:30:59.260Z,0
2023-01-06T01:31:39.619Z,0
2023-01-06T01:32:20.168Z,0
2023-01-06T01:33:00.652Z,0
2023-01-06T01:33:41.214Z,0
2023-01-06T01:34:21.750Z,0
2023-01-06T01:35:02.416Z,0
2023-01-06T01:35:42.953Z,0
2023-01-06T01:41:49.142Z,0
2023-01-06T01:42:29.695Z,0
2023-01-06T01:43:10.197Z,0
2023-01-06T01:43:50.703Z,0
2023-01-06T01:44:31.229Z,0
2023-01-06T01:45:11.755Z,0
2023-01-06T01:45:52.309Z,0
2023-01-06T01:46:32.853Z,0
2023-01-06T01:53:58.627Z,0
2023-01-06T01:54:39.173Z,0
2023-01-06T01:55:19.764Z,0
2023-01-06T01:56:00.260Z,0
2023-01-06T01:56:40.761Z,0
2023-01-06T01:57:21.284Z,0
2023-01-06T01:58:01.834Z,0
2023-01-06T01:58:43.093Z,0
2023-01-06T02:05:28.379Z,0
2023-01-06T02:06:08.878Z,0
2023-01-06T02:06:49.417Z,0
2023-01-06T02:07:29.940Z,0
2023-01-06T02:08:10.486Z,0
2023-01-06T02:08:51.022Z,0
2023-01-06T02:09:31.516Z,0
2023-01-06T02:10:12.078Z,0
2023-01-06T02:10:52.569Z,0
2023-01-06T02:11:33.095Z,0
2023-01-06T02:18:18.362Z,0
2023-01-06T02:18:58.890Z,0
2023-01-06T02:19:40.245Z,0
2023-01-06T02:20:20.755Z,0
2023-01-06T02:21:01.293Z,0
2023-01-06T02:21:41.844Z,0
2023-01-06T02:22:22.392Z,0
2023-01-06T02:23:02.945Z,0
2023-01-06T02:29:48.328Z,0
2023-01-06T02:30:28.901Z,0
2023-01-06T02:31:09.568Z,0
2023-01-06T02:31:50.055Z,0
2023-01-06T02:32:30.588Z,0
2023-01-06T02:33:11.226Z,0
2023-01-06T02:33:51.642Z,0
2023-01-06T02:34:32.208Z,0
2023-01-06T02:35:12.725Z,0
2023-01-06T02:35:53.281Z,0
2023-01-06T02:41:58.726Z,0
2023-01-06T02:42:39.292Z,0
2023-01-06T02:43:19.827Z,0
2023-01-06T02:44:01.070Z,0
2023-01-06T02:44:41.662Z,0
2023-01-06T02:45:22.231Z,0
2023-01-06T02:46:02.829Z,0
2023-01-06T02:46:43.262Z,0
2023-01-06T02:53:28.617Z,0
2023-01-06T02:54:09.149Z,0
2023-01-06T02:54:49.673Z,0
2023-01-06T02:55:30.210Z,0
2023-01-06T02:56:10.758Z,0
2023-01-06T02:56:51.271Z,0
2023-01-06T02:57:31.801Z,0
2023-01-06T02:58:12.313Z,0
2023-01-06T02:58:52.870Z,0
2023-01-06T03:06:19.244Z,0
2023-01-06T03:06:59.772Z,0
2023-01-06T03:07:40.335Z,0
2023-01-06T03:08:20.882Z,0
2023-01-06T03:09:01.434Z,0
2023-01-06T03:09:41.973Z,0
2023-01-06T03:10:22.520Z,0
2023-01-06T03:11:03.077Z,0
2023-01-06T03:17:48.483Z,0
2023-01-06T03:18:28.996Z,0
2023-01-06T03:19:09.541Z,0
2023-01-06T03:19:50.214Z,0
2023-01-06T03:20:30.601Z,0
2023-01-06T03:21:11.135Z,0
2023-01-06T03:21:51.688Z,0
2023-01-06T03:22:32.235Z,0
2023-01-06T03:23:12.755Z,0
2023-01-06T03:23:53.316Z,0
2023-01-06T03:29:58.244Z,0
2023-01-06T03:30:38.805Z,0
2023-01-06T03:31:19.361Z,0
2023-01-06T03:31:59.855Z,0
2023-01-06T03:32:40.393Z,0
2023-01-06T03:33:20.949Z,0
2023-01-06T03:34:01.463Z,0
2023-01-06T03:34:42.017Z,0
2023-01-06T03:35:22.670Z,0
2023-01-06T03:36:03.093Z,0
2023-01-06T03:42:48.433Z,0
2023-01-06T03:43:28.970Z,0
2023-01-06T03:44:09.539Z,0
2023-01-06T03:44:50.105Z,0
2023-01-06T03:45:31.183Z,0
2023-01-06T03:46:11.721Z,0
2023-01-06T03:46:52.297Z,0
2023-01-06T03:47:32.822Z,0
2023-01-06T03:50:26.550Z,0
2023-01-06T03:51:06.941Z,0
2023-01-06T03:51:47.524Z,0
2023-01-06T03:52:28.039Z,0
2023-01-06T03:55:51.417Z,0
2023-01-06T03:56:31.969Z,0
2023-01-06T03:57:12.517Z,0
2023-01-06T03:57:53.070Z,0
2023-01-06T03:58:33.632Z,0
2023-01-06T03:59:14.169Z,0
2023-01-06T03:59:54.714Z,0
2023-01-06T04:00:35.259Z,0
2023-01-06T04:01:15.886Z,0
2023-01-06T04:08:41.572Z,0
2023-01-06T04:09:22.135Z,0
2023-01-06T04:10:02.641Z,0
2023-01-06T04:10:43.176Z,0
2023-01-06T04:11:23.687Z,0
2023-01-06T04:12:04.223Z,0
2023-01-06T04:12:44.780Z,0
2023-01-06T04:13:25.342Z,0
2023-01-06T04:14:05.849Z,0
2023-01-06T04:20:21.989Z,0
2023-01-06T04:21:02.668Z,0
2023-01-06T04:21:43.113Z,0
2023-01-06T04:22:23.647Z,0
2023-01-06T04:25:06.698Z,0
2023-01-06T04:25:47.251Z,0
2023-01-06T04:26:27.810Z,0
2023-01-06T04:27:09.903Z,0
2023-01-06T04:27:51.137Z,0
2023-01-06T04:35:30.366Z,0
2023-01-06T04:36:11.059Z,0
2023-01-06T04:36:51.454Z,0
2023-01-06T04:37:31.993Z,0
2023-01-06T04:41:35.221Z,0
2023-01-06T04:42:15.767Z,0
2023-01-06T04:42:56.277Z,0
2023-01-06T04:43:36.797Z,0
2023-01-06T04:44:17.321Z,0
2023-01-06T04:44:57.850Z,0
2023-01-06T04:45:38.398Z,0
2023-01-06T04:46:18.901Z,0
2023-01-06T04:46:59.432Z,0
2023-01-06T04:47:39.967Z,0
2023-01-06T04:51:14.455Z,0
2023-01-06T04:51:54.896Z,0
2023-01-06T04:52:35.455Z,0
2023-01-06T04:53:15.989Z,0
2023-01-06T04:57:19.187Z,0
2023-01-06T04:57:59.756Z,0
2023-01-06T04:58:40.262Z,0
2023-01-06T04:59:20.787Z,0
2023-01-06T05:00:01.445Z,0
2023-01-06T05:00:42.817Z,0
2023-01-06T05:03:22.787Z,0
2023-01-06T05:04:03.379Z,0
2023-01-06T05:04:47.856Z,0
2023-01-06T05:05:24.407Z,0
2023-01-06T05:10:24.690Z,0
2023-01-06T05:11:05.868Z,0
2023-01-06T05:11:48.157Z,0
2023-01-06T05:12:30.655Z,0
2023-01-06T05:13:13.911Z,0
2023-01-06T05:15:51.625Z,0
2023-01-06T05:16:33.462Z,0
2023-01-06T05:17:13.888Z,0
2023-01-06T05:17:54.477Z,0
2023-01-06T05:20:07.719Z,0
2023-01-06T05:20:48.237Z,0
2023-01-06T05:21:30.897Z,0
2023-01-06T05:22:09.426Z,0
2023-01-06T05:26:12.524Z,0
2023-01-06T05:26:53.047Z,0
2023-01-06T05:27:33.613Z,0
2023-01-06T05:28:14.137Z,0
2023-01-06T05:28:54.653Z,0
2023-01-06T05:29:35.178Z,0
2023-01-06T05:30:15.715Z,0
2023-01-06T05:30:56.256Z,0
2023-01-06T05:31:36.851Z,0
2023-01-06T05:32:17.298Z,0
2023-01-06T05:37:42.315Z,0
2023-01-06T05:38:22.718Z,0
2023-01-06T05:39:03.251Z,0
2023-01-06T05:39:43.773Z,0
2023-01-06T05:40:24.300Z,0
2023-01-06T05:41:05.413Z,0
2023-01-06T05:41:45.953Z,0
2023-01-06T05:49:12.738Z,0
2023-01-06T05:49:53.235Z,0
2023-01-06T05:50:33.775Z,0
2023-01-06T05:51:14.292Z,0
2023-01-06T05:51:54.804Z,0
2023-01-06T05:52:35.357Z,0
2023-01-06T05:53:16.007Z,0
2023-01-06T05:53:56.405Z,0
2023-01-06T05:54:36.945Z,0
2023-01-06T06:00:42.583Z,0
2023-01-06T06:01:23.200Z,0
2023-01-06T06:02:03.789Z,0
2023-01-06T06:02:45.101Z,0
2023-01-06T06:03:25.667Z,0
2023-01-06T06:04:06.213Z,0
2023-01-06T06:04:46.684Z,0
2023-01-06T06:05:27.208Z,0
2023-01-06T06:12:12.572Z,0
2023-01-06T06:12:53.103Z,0
2023-01-06T06:13:33.646Z,0
2023-01-06T06:14:15.916Z,0
2023-01-06T06:14:54.743Z,0
2023-01-06T06:15:35.295Z,0
2023-01-06T06:16:15.879Z,0
2023-01-06T06:16:56.368Z,0
2023-01-06T06:17:36.895Z,0
2023-01-06T06:19:49.931Z,0
2023-01-06T06:20:30.458Z,0
2023-01-06T06:21:10.997Z,0
2023-01-06T06:21:51.551Z,0
2023-01-06T06:24:34.636Z,0
2023-01-06T06:25:15.162Z,0
2023-01-06T06:25:55.679Z,0
2023-01-06T06:26:36.179Z,0
2023-01-06T06:27:16.691Z,0
2023-01-06T06:27:57.238Z,0
2023-01-06T06:30:10.878Z,0
2023-01-06T06:30:55.413Z,0
2023-01-06T06:31:33.967Z,0
2023-01-06T06:32:14.533Z,0
2023-01-06T06:34:28.827Z,0
2023-01-06T06:35:10.208Z,0
2023-01-06T06:35:50.770Z,0
2023-01-06T06:36:33.815Z,0
2023-01-06T06:38:48.431Z,0
2023-01-06T06:39:29.666Z,0
2023-01-06T06:40:10.765Z,0
2023-01-06T06:40:51.936Z,0
2023-01-06T06:43:25.839Z,0
2023-01-06T06:44:06.335Z,0
2023-01-06T06:44:50.734Z,0
2023-01-06T06:45:29.396Z,0
2023-01-06T06:47:43.084Z,0
2023-01-06T06:48:23.599Z,0
2023-01-06T06:49:04.129Z,0
2023-01-06T06:49:44.658Z,0
2023-01-06T06:51:47.203Z,0
2023-01-06T06:52:27.708Z,0
2023-01-06T06:55:06.351Z,0
2023-01-06T06:55:46.769Z,0
2023-01-06T06:56:27.287Z,0
2023-01-06T06:57:07.774Z,0
2023-01-06T07:00:30.978Z,0
2023-01-06T07:01:11.675Z,0
2023-01-06T07:01:52.233Z,0
2023-01-06T07:02:32.594Z,0
2023-01-06T07:03:13.141Z,0
2023-01-06T07:03:53.699Z,0
2023-01-06T07:04:34.320Z,0
2023-01-06T07:05:14.766Z,0
2023-01-06T07:05:55.281Z,0
2023-01-06T07:06:35.798Z,0
2023-01-06T07:10:50.635Z,0
2023-01-06T07:11:31.056Z,0
2023-01-06T07:12:11.589Z,0
2023-01-06T07:12:53.146Z,0
2023-01-06T07:16:55.448Z,0
2023-01-06T07:17:35.973Z,0
2023-01-06T07:18:16.529Z,0
2023-01-06T07:18:57.000Z,0
2023-01-06T07:19:37.546Z,0
2023-01-06T07:20:18.065Z,0
2023-01-06T07:20:58.585Z,0
2023-01-06T07:21:40.054Z,5
2023-01-06T07:28:13.291Z,5
2023-01-06T07:28:53.685Z,5
2023-01-06T07:29:34.216Z,5
2023-01-06T07:30:14.753Z,10
2023-01-06T07:34:17.924Z,10
2023-01-06T07:34:58.445Z,15
2023-01-06T07:35:39.836Z,15
2023-01-06T07:36:20.352Z,15
2023-01-06T07:37:00.876Z,15
2023-01-06T07:37:41.402Z,15
2023-01-06T07:38:21.928Z,15
2023-01-06T07:43:08.183Z,20
2023-01-06T07:43:48.812Z,20
2023-01-06T07:44:29.203Z,20
2023-01-06T07:45:09.758Z,20
2023-01-06T07:45:50.343Z,20
2023-01-06T07:48:28.783Z,25
2023-01-06T07:49:09.287Z,30
2023-01-06T07:49:49.809Z,35
2023-01-06T07:50:30.357Z,40
2023-01-06T07:54:04.449Z,30
2023-01-06T07:54:44.954Z,30
2023-01-06T07:55:27.024Z,30
2023-01-06T07:56:07.534Z,35
2023-01-06T07:58:22.749Z,50
2023-01-06T07:59:04.204Z,50
2023-01-06T07:59:44.591Z,45
2023-01-06T08:00:26.016Z,40
2023-01-06T08:02:39.362Z,30
2023-01-06T08:03:19.876Z,35
2023-01-06T08:04:00.347Z,35
2023-01-06T08:04:40.864Z,35
2023-01-06T08:08:31.304Z,40
2023-01-06T08:09:12.405Z,45
2023-01-06T08:09:52.951Z,50
2023-01-06T08:10:34.236Z,55
2023-01-06T08:13:28.061Z,55
2023-01-06T08:14:08.703Z,50
2023-01-06T08:14:50.826Z,50
2023-01-06T08:15:31.330Z,55
2023-01-06T08:18:12.109Z,60
2023-01-06T08:18:53.371Z,55
2023-01-06T08:19:34.736Z,55
2023-01-06T08:20:16.158Z,55
2023-01-06T08:20:56.704Z,55
2023-01-06T08:23:28.048Z,55
2023-01-06T08:24:08.600Z,55
2023-01-06T08:24:49.980Z,60
2023-01-06T08:25:30.563Z,60
2023-01-06T08:27:57.407Z,65
2023-01-06T08:30:59.790Z,55
2023-01-06T08:31:42.609Z,55
2023-01-06T08:32:23.161Z,60
2023-01-06T08:33:05.140Z,65
2023-01-06T08:33:47.427Z,75
2023-01-06T08:35:12.119Z,80
2023-01-06T08:35:54.618Z,75
2023-01-06T08:38:45.199Z,55
2023-01-06T08:41:03.279Z,55
2023-01-06T08:41:44.706Z,50
2023-01-06T08:42:25.219Z,45
2023-01-06T08:43:05.807Z,45
2023-01-06T08:45:47.966Z,55
2023-01-06T08:46:28.661Z,55
2023-01-06T08:47:09.003Z,55
2023-01-06T08:47:49.550Z,55
2023-01-06T08:50:30.600Z,60
2023-01-06T08:51:11.187Z,60
2023-01-06T08:51:52.770Z,60
2023-01-06T08:52:36.217Z,65
2023-01-06T08:53:17.722Z,70
2023-01-06T08:55:26.253Z,75
2023-01-06T08:57:47.399Z,80
2023-01-06T08:58:27.943Z,75
2023-01-06T08:59:09.061Z,75
2023-01-06T08:59:49.586Z,75
2023-01-06T09:03:12.233Z,80
2023-01-06T09:03:52.753Z,85
2023-01-06T09:04:33.319Z,90
2023-01-06T09:05:13.894Z,85
2023-01-06T09:05:54.426Z,80
2023-01-06T09:06:34.963Z,75
2023-01-06T09:07:15.455Z,75
2023-01-06T09:07:56.005Z,75
2023-01-06T09:08:36.541Z,75
2023-01-06T09:09:17.081Z,75
2023-01-06T09:12:50.959Z,70
2023-01-06T09:13:31.464Z,70
2023-01-06T09:14:12.747Z,70
2023-01-06T09:14:53.278Z,70
2023-01-06T09:17:06.965Z,75
2023-01-06T09:17:47.359Z,70
2023-01-06T09:18:27.892Z,70
2023-01-06T09:19:08.357Z,70
2023-01-06T09:24:03.625Z,75
2023-01-06T09:24:44.169Z,75
2023-01-06T09:25:24.872Z,75
2023-01-06T09:26:05.374Z,75
2023-01-06T09:28:25.027Z,75
2023-01-06T09:29:05.637Z,80
2023-01-06T09:29:46.241Z,80
2023-01-06T09:30:26.769Z,80
2023-01-06T09:35:01.768Z,75
2023-01-06T09:35:42.289Z,75
2023-01-06T09:36:22.816Z,80
2023-01-06T09:37:03.347Z,80
2023-01-06T09:41:06.542Z,100
2023-01-06T09:41:47.086Z,110
2023-01-06T09:42:27.643Z,125
2023-01-06T09:45:01.632Z,130
2023-01-06T09:45:42.145Z,120
2023-01-06T09:46:22.866Z,115
2023-01-06T09:47:03.503Z,110
2023-01-06T09:49:46.578Z,90
2023-01-06T09:50:27.077Z,90
2023-01-06T09:51:07.602Z,90
2023-01-06T09:51:48.168Z,90
2023-01-06T09:54:26.241Z,105
2023-01-06T09:55:09.261Z,110
2023-01-06T09:55:51.239Z,115
2023-01-06T09:56:32.358Z,115
2023-01-06T09:58:52.074Z,115
2023-01-06T09:59:32.631Z,120
2023-01-06T10:00:13.119Z,125
2023-01-06T10:00:53.828Z,130
2023-01-06T10:04:16.803Z,145
2023-01-06T10:04:57.551Z,150
2023-01-06T10:05:37.927Z,150
2023-01-06T10:06:18.558Z,150
2023-01-06T10:06:59.204Z,150
2023-01-06T10:07:39.743Z,160
2023-01-06T10:08:20.452Z,175
2023-01-06T10:10:33.515Z,160
2023-01-06T10:11:14.038Z,150
2023-01-06T10:11:54.587Z,145
2023-01-06T10:12:35.115Z,145
2023-01-06T10:15:44.137Z,135
2023-01-06T10:16:24.746Z,135
2023-01-06T10:17:05.231Z,135
2023-01-06T10:17:46.643Z,125
2023-01-06T10:21:00.266Z,110
2023-01-06T10:21:40.771Z,110
2023-01-06T10:22:21.307Z,110
2023-01-06T10:23:01.841Z,110
2023-01-06T10:25:32.978Z,110
2023-01-06T10:26:14.177Z,110
2023-01-06T10:26:54.738Z,105
2023-01-06T10:27:35.298Z,105
2023-01-06T10:30:17.898Z,100
2023-01-06T10:30:58.577Z,100
2023-01-06T10:31:39.140Z,100
2023-01-06T10:32:19.717Z,100
2023-01-06T10:33:00.268Z,100
2023-01-06T10:33:41.117Z,100
2023-01-06T10:36:19.534Z,105
2023-01-06T10:37:00.042Z,105
2023-01-06T10:37:40.574Z,105
2023-01-06T10:38:21.130Z,110
2023-01-06T10:42:24.452Z,175
2023-01-06T10:45:03.708Z,195
2023-01-06T10:45:45.962Z,190
2023-01-06T10:46:26.536Z,195
2023-01-06T10:47:07.013Z,200
2023-01-06T10:49:08.702Z,200
2023-01-06T10:49:49.158Z,195
2023-01-06T10:50:29.673Z,200
2023-01-06T10:53:08.208Z,200
2023-01-06T10:53:48.735Z,200
2023-01-06T10:54:29.305Z,200
2023-01-06T10:55:09.855Z,190
2023-01-06T10:59:13.061Z,165
2023-01-06T10:59:54.210Z,160
2023-01-06T11:00:34.813Z,160
2023-01-06T11:01:15.347Z,180
2023-01-06T11:01:55.992Z,190
2023-01-06T11:02:36.447Z,205
2023-01-06T11:03:32.664Z,210
2023-01-06T11:03:57.416Z,205
2023-01-06T11:10:03.098Z,235
2023-01-06T11:10:43.635Z,225
2023-01-06T11:11:28.778Z,225
2023-01-06T11:12:04.731Z,225
2023-01-06T11:12:45.320Z,215
2023-01-06T11:13:25.851Z,220
2023-01-06T11:14:06.429Z,230
2023-01-06T11:16:44.893Z,250
2023-01-06T11:17:25.436Z,235
2023-01-06T11:18:06.001Z,225
2023-01-06T11:18:46.472Z,225
2023-01-06T11:24:22.343Z,230
2023-01-06T11:25:03.841Z,240
2023-01-06T11:25:44.368Z,240
2023-01-06T11:26:24.923Z,230
2023-01-06T11:28:38.487Z,255
2023-01-06T11:29:19.036Z,250
2023-01-06T11:29:59.578Z,240
2023-01-06T11:30:40.178Z,235
2023-01-06T11:34:43.379Z,230
2023-01-06T11:35:23.984Z,210
2023-01-06T11:36:04.403Z,200
2023-01-06T11:36:44.933Z,200
2023-01-06T11:37:25.465Z,205
2023-01-06T11:38:05.972Z,205
2023-01-06T11:38:46.495Z,210
2023-01-06T11:39:27.048Z,210
2023-01-06T11:40:11.362Z,210
2023-01-06T11:40:48.078Z,225
2023-01-06T11:45:02.775Z,220
2023-01-06T11:45:43.397Z,220
2023-01-06T11:46:23.816Z,220
2023-01-06T11:47:04.367Z,225
2023-01-06T11:51:07.568Z,235
2023-01-06T11:51:48.144Z,230
2023-01-06T11:52:29.185Z,215
2023-01-06T11:53:10.446Z,215
2023-01-06T11:53:51.039Z,235
2023-01-06T11:54:31.571Z,250
2023-01-06T11:55:13.397Z,240
2023-01-06T12:01:58.617Z,210
2023-01-06T12:02:40.129Z,215
2023-01-06T12:03:20.674Z,220
2023-01-06T12:04:01.142Z,225
2023-01-06T12:04:41.661Z,230
2023-01-06T12:05:22.223Z,245
2023-01-06T12:08:56.370Z,220
2023-01-06T12:09:36.900Z,225
2023-01-06T12:10:17.429Z,230
2023-01-06T12:10:58.600Z,240
2023-01-06T12:13:44.625Z,255
2023-01-06T12:14:28.723Z,265
2023-01-06T12:15:03.628Z,245
2023-01-06T12:15:43.362Z,230
2023-01-06T12:16:24.042Z,220
2023-01-06T12:17:04.549Z,210
2023-01-06T12:17:45.009Z,210
2023-01-06T12:18:25.491Z,220
2023-01-06T12:19:06.048Z,220
2023-01-06T12:24:31.144Z,170
2023-01-06T12:25:11.636Z,170
2023-01-06T12:25:52.153Z,170
2023-01-06T12:26:32.701Z,165
2023-01-06T12:27:13.247Z,165
2023-01-06T12:27:53.803Z,175
2023-01-06T12:28:34.333Z,195
2023-01-06T12:29:14.851Z,200
2023-01-06T12:29:55.390Z,210
2023-01-06T12:30:35.977Z,220
2023-01-06T12:36:40.963Z,215
2023-01-06T12:37:22.111Z,220
2023-01-06T12:38:02.626Z,225
2023-01-06T12:38:43.124Z,225
2023-01-06T12:39:23.694Z,220
2023-01-06T12:40:04.191Z,210
2023-01-06T12:40:44.714Z,210
2023-01-06T12:41:25.243Z,210
2023-01-06T12:42:05.814Z,210
2023-01-06T12:48:51.120Z,210
2023-01-06T12:49:31.671Z,205
2023-01-06T12:50:12.196Z,210
2023-01-06T12:50:52.727Z,210
2023-01-06T12:51:33.271Z,210
2023-01-06T12:52:13.900Z,205
2023-01-06T12:52:54.331Z,205
2023-01-06T12:53:34.885Z,205
2023-01-06T12:54:15.395Z,195
2023-01-06T12:54:55.966Z,195
2023-01-06T13:01:01.586Z,105
2023-01-06T13:01:42.864Z,95
2023-01-06T13:02:23.280Z,90
2023-01-06T13:03:03.825Z,90
2023-01-06T13:03:44.366Z,90
2023-01-06T13:04:24.924Z,90
2023-01-06T13:11:11.158Z,110
2023-01-06T13:11:51.698Z,105
2023-01-06T13:12:32.293Z,110
2023-01-06T13:13:12.813Z,110
2023-01-06T13:13:53.349Z,115
2023-01-06T13:14:33.877Z,115
2023-01-06T13:17:12.104Z,115
2023-01-06T13:17:52.630Z,110
2023-01-06T13:18:33.154Z,115
2023-01-06T13:19:13.683Z,115
2023-01-06T13:22:29.120Z,125
2023-01-06T13:23:09.671Z,125
2023-01-06T13:23:50.233Z,120
2023-01-06T13:24:30.876Z,105
2023-01-06T13:28:34.198Z,85
2023-01-06T13:29:14.744Z,85
2023-01-06T13:29:55.277Z,90
2023-01-06T13:30:35.936Z,95
2023-01-06T13:31:17.183Z,105
2023-01-06T13:31:57.730Z,105
2023-01-06T13:32:38.313Z,100
2023-01-06T13:38:03.716Z,75
2023-01-06T13:38:44.359Z,75
2023-01-06T13:39:24.759Z,75
2023-01-06T13:42:03.266Z,85
2023-01-06T13:42:43.813Z,80
2023-01-06T13:43:24.325Z,85
2023-01-06T13:44:04.874Z,80
2023-01-06T13:48:08.036Z,70
2023-01-06T13:48:48.583Z,70
2023-01-06T13:49:29.120Z,65
2023-01-06T13:50:10.682Z,70
2023-01-06T13:50:51.233Z,70
2023-01-06T13:51:31.754Z,70
2023-01-06T13:52:12.279Z,70
2023-01-06T13:52:52.811Z,65
2023-01-06T13:59:38.206Z,80
2023-01-06T14:00:18.758Z,80
2023-01-06T14:00:59.332Z,85
2023-01-06T14:01:39.967Z,90
2023-01-06T14:02:20.556Z,90
2023-01-06T14:03:01.034Z,90
2023-01-06T14:03:41.467Z,90
2023-01-06T14:04:21.971Z,90
2023-01-06T14:05:02.529Z,90
2023-01-06T14:11:07.858Z,75
2023-01-06T14:11:48.375Z,75
2023-01-06T14:12:28.874Z,70
2023-01-06T14:13:09.401Z,70
2023-01-06T14:13:49.967Z,70
2023-01-06T14:14:30.495Z,75
2023-01-06T14:15:11.033Z,70
2023-01-06T14:15:51.807Z,65
2023-01-06T14:16:32.173Z,65
2023-01-06T14:17:12.730Z,65
2023-01-06T14:21:17.827Z,65
2023-01-06T14:21:58.323Z,70
2023-01-06T14:22:38.872Z,75
2023-01-06T14:23:19.479Z,70
2023-01-06T14:23:59.968Z,70
2023-01-06T14:24:40.509Z,70
2023-01-06T14:25:21.149Z,75
2023-01-06T14:26:01.536Z,75
2023-01-06T14:26:42.081Z,70
2023-01-06T14:27:22.640Z,65
2023-01-06T14:33:45.137Z,50
2023-01-06T14:34:26.546Z,50
2023-01-06T14:35:07.536Z,50
2023-01-06T14:37:48.061Z,45
2023-01-06T14:38:28.551Z,50
2023-01-06T14:39:09.095Z,50
2023-01-06T14:39:50.476Z,50
2023-01-06T14:42:32.669Z,45
2023-01-06T14:43:13.158Z,45
2023-01-06T14:43:53.717Z,45
2023-01-06T14:44:34.230Z,45
2023-01-06T14:45:17.653Z,45
2023-01-06T14:45:57.211Z,45
2023-01-06T14:46:37.733Z,45
2023-01-06T14:52:52.728Z,40
2023-01-06T14:53:33.437Z,40
2023-01-06T14:54:13.809Z,40
2023-01-06T14:54:56.078Z,45
2023-01-06T14:57:25.954Z,40
2023-01-06T14:58:06.411Z,40
2023-01-06T14:58:46.931Z,40
2023-01-06T14:59:27.480Z,35
2023-01-06T15:03:08.039Z,35
2023-01-06T15:03:48.549Z,30
2023-01-06T15:04:29.089Z,30
2023-01-06T15:05:09.622Z,30
2023-01-06T15:09:12.771Z,30
2023-01-06T15:09:53.297Z,30
2023-01-06T15:10:33.823Z,30
2023-01-06T15:11:14.334Z,25
2023-01-06T15:11:54.884Z,25
2023-01-06T15:12:35.494Z,25
2023-01-06T15:13:15.885Z,25
2023-01-06T15:13:56.436Z,25
2023-01-06T15:16:34.927Z,20
2023-01-06T15:17:15.448Z,20
2023-01-06T15:17:55.997Z,20
2023-01-06T15:18:36.505Z,20
2023-01-06T15:22:39.669Z,15
2023-01-06T15:23:20.222Z,15
2023-01-06T15:24:00.690Z,15
2023-01-06T15:24:41.209Z,15
2023-01-06T15:25:21.739Z,15
2023-01-06T15:26:02.254Z,15
2023-01-06T15:26:43.484Z,10
2023-01-06T15:27:24.007Z,10
2023-01-06T15:32:49.702Z,10
2023-01-06T15:33:30.213Z,5
2023-01-06T15:36:08.894Z,5
2023-01-06T15:36:49.527Z,5
2023-01-06T15:37:30.059Z,5
2023-01-06T15:38:10.599Z,5
2023-01-06T15:42:13.891Z,5
2023-01-06T15:42:54.420Z,5
2023-01-06T15:43:35.069Z,5
2023-01-06T15:44:15.522Z,0
2023-01-06T15:44:55.990Z,0
2023-01-06T15:45:36.535Z,0
2023-01-06T15:46:17.106Z,0
2023-01-06T15:46:57.565Z,0
2023-01-06T15:53:03.952Z,0
2023-01-06T15:53:44.472Z,0
2023-01-06T15:54:25.029Z,0
2023-01-06T15:55:05.538Z,0
2023-01-06T15:55:46.125Z,0
2023-01-06T15:56:26.650Z,0
2023-01-06T15:57:16.000Z,0
2023-01-06T15:57:47.696Z,0
2023-01-06T15:58:28.241Z,0
2023-01-06T16:05:13.741Z,0
2023-01-06T16:06:00.306Z,0
2023-01-06T16:06:34.759Z,0
2023-01-06T16:07:15.274Z,0
2023-01-06T16:07:55.780Z,0
2023-01-06T16:08:36.336Z,0
2023-01-06T16:09:16.873Z,0
2023-01-06T16:09:57.458Z,0
2023-01-06T16:10:37.978Z,0
2023-01-06T16:11:18.504Z,0
2023-01-06T16:18:03.822Z,0
2023-01-06T16:18:44.338Z,0
2023-01-06T16:19:24.854Z,0
2023-01-06T16:20:05.375Z,0
2023-01-06T16:20:45.891Z,0
2023-01-06T16:21:26.433Z,0
2023-01-06T16:22:06.960Z,0
2023-01-06T16:22:47.470Z,0
2023-01-06T16:23:28.020Z,0
2023-01-06T16:24:08.543Z,0
2023-01-06T16:30:13.520Z,0
2023-01-06T16:30:53.949Z,0
2023-01-06T16:31:34.561Z,0
2023-01-06T16:32:14.974Z,0
2023-01-06T16:32:55.514Z,0
2023-01-06T16:33:36.184Z,0
2023-01-06T16:36:14.660Z,0
2023-01-06T16:36:55.163Z,0
2023-01-06T16:37:35.666Z,0
2023-01-06T16:38:16.212Z,0
2023-01-06T16:42:19.386Z,0
2023-01-06T16:43:00.814Z,0
2023-01-06T16:43:41.305Z,0
2023-01-06T16:44:21.851Z,0
2023-01-06T16:45:02.397Z,0
2023-01-06T16:45:43.046Z,0
2023-01-06T16:46:23.432Z,0
2023-01-06T16:47:03.962Z,0
2023-01-06T16:53:09.235Z,0
2023-01-06T16:53:49.755Z,0
2023-01-06T16:54:30.279Z,0
2023-01-06T16:55:10.848Z,0
2023-01-06T16:55:51.358Z,0
2023-01-06T16:56:31.868Z,0
2023-01-06T16:57:12.435Z,0
2023-01-06T16:57:53.023Z,0
2023-01-06T16:58:33.570Z,0
2023-01-06T16:59:14.059Z,0
2023-01-06T17:05:59.287Z,0
2023-01-06T17:06:39.808Z,0
2023-01-06T17:07:20.338Z,0
2023-01-06T17:08:00.866Z,0
2023-01-06T17:08:41.374Z,0
2023-01-06T17:09:21.898Z,0
2023-01-06T17:10:02.416Z,0
2023-01-06T17:10:42.925Z,0
2023-01-06T17:11:23.462Z,0
2023-01-06T17:12:03.965Z,0
2023-01-06T17:18:49.269Z,0
2023-01-06T17:19:29.795Z,0
2023-01-06T17:20:10.329Z,0
2023-01-06T17:20:50.870Z,0
2023-01-06T17:21:31.392Z,0
2023-01-06T17:22:11.934Z,0
2023-01-06T17:22:52.471Z,0
2023-01-06T17:23:32.987Z,0
2023-01-06T17:24:13.518Z,0
2023-01-06T17:24:54.036Z,0
2023-01-06T17:31:39.589Z,0
2023-01-06T17:32:20.242Z,0
2023-01-06T17:33:00.565Z,0
2023-01-06T17:33:41.096Z,0
2023-01-06T17:34:21.600Z,0
2023-01-06T17:35:02.131Z,0
2023-01-06T17:35:42.660Z,0
2023-01-06T17:36:23.175Z,0
2023-01-06T17:37:03.690Z,0
2023-01-06T17:37:44.227Z,0
2023-01-06T17:44:29.483Z,0
2023-01-06T17:45:09.979Z,0
2023-01-06T17:45:50.497Z,0
2023-01-06T17:46:31.084Z,0
2023-01-06T17:47:11.582Z,0
2023-01-06T17:47:52.265Z,0
2023-01-06T17:48:32.688Z,0
2023-01-06T17:49:13.195Z,0
2023-01-06T17:49:53.712Z,0
2023-01-06T17:50:34.233Z,0
2023-01-06T17:56:39.539Z,0
2023-01-06T17:57:20.048Z,0
2023-01-06T17:58:00.596Z,0
2023-01-06T17:58:41.099Z,0
2023-01-06T17:59:21.626Z,0
2023-01-06T18:00:02.154Z,0
2023-01-06T18:00:42.746Z,0
2023-01-06T18:01:23.344Z,0
2023-01-06T18:02:03.744Z,0
2023-01-06T18:02:44.219Z,0
2023-01-06T18:06:58.969Z,0
2023-01-06T18:07:42.324Z,0
2023-01-06T18:08:26.462Z,0
2023-01-06T18:09:09.465Z,0
2023-01-06T18:09:51.565Z,0
2023-01-06T18:10:36.455Z,0
2023-01-06T18:11:16.975Z,0
2023-01-06T18:13:30.567Z,0
2023-01-06T18:14:11.106Z,0
2023-01-06T18:14:51.634Z,0
2023-01-06T18:15:32.166Z,0
2023-01-06T18:19:35.268Z,0
2023-01-06T18:20:15.825Z,0
2023-01-06T18:22:54.300Z,0